sensor_id;sensor_type;location;lat;lon;timestamp;P1;durP1;ratioP1;P2;durP2;ratioP2
16383;SDS011;8301;51.440;6.610;2023-12-22T00:00:33;0.30;;;0.30;;
16383;SDS011;8301;51.440;6.610;2023-12-22T00:03:00;0.30;;;0.30;;
16383;SDS011;8301;51.440;6.610;2023-12-22T00:05:28;0.30;;;0.30;;
16383;SDS011;8301;51.440;6.610;2023-12-22T00:07:56;0.33;;;0.33;;
16383;SDS011;8301;51.440;6.610;2023-12-22T00:10:29;0.30;;;0.30;;
16383;SDS011;8301;51.440;6.610;2023-12-22T00:13:03;0.30;;;0.30;;
16383;SDS011;8301;51.440;6.610;2023-12-22T00:15:30;0.30;;;0.30;;
16383;SDS011;8301;51.440;6.610;2023-12-22T00:17:58;32.15;;;2.47;;
16383;SDS011;8301;51.440;6.610;2023-12-22T00:20:25;0.50;;;0.50;;
16383;SDS011;8301;51.440;6.610;2023-12-22T00:22:53;0.30;;;0.30;;
16383;SDS011;8301;51.440;6.610;2023-12-22T00:25:20;0.30;;;0.30;;
16383;SDS011;8301;51.440;6.610;2023-12-22T00:27:48;0.30;;;0.30;;
16383;SDS011;8301;51.440;6.610;2023-12-22T00:30:15;0.42;;;0.42;;
16383;SDS011;8301;51.440;6.610;2023-12-22T00:32:44;0.30;;;0.30;;
16383;SDS011;8301;51.440;6.610;2023-12-22T00:35:11;0.40;;;0.40;;
16383;SDS011;8301;51.440;6.610;2023-12-22T00:37:39;0.30;;;0.30;;
16383;SDS011;8301;51.440;6.610;2023-12-22T00:40:06;0.30;;;0.30;;
16383;SDS011;8301;51.440;6.610;2023-12-22T00:42:35;0.30;;;0.30;;
16383;SDS011;8301;51.440;6.610;2023-12-22T00:45:02;0.30;;;0.30;;
16383;SDS011;8301;51.440;6.610;2023-12-22T00:47:30;1.27;;;1.17;;
16383;SDS011;8301;51.440;6.610;2023-12-22T00:49:59;0.57;;;0.57;;
16383;SDS011;8301;51.440;6.610;2023-12-22T00:52:27;0.23;;;0.23;;
16383;SDS011;8301;51.440;6.610;2023-12-22T00:54:55;0.30;;;0.30;;
16383;SDS011;8301;51.440;6.610;2023-12-22T00:57:22;0.30;;;0.30;;
16383;SDS011;8301;51.440;6.610;2023-12-22T00:59:50;0.50;;;0.50;;
16383;SDS011;8301;51.440;6.610;2023-12-22T01:02:18;1.07;;;1.07;;
16383;SDS011;8301;51.440;6.610;2023-12-22T01:04:46;0.30;;;0.30;;
16383;SDS011;8301;51.440;6.610;2023-12-22T01:07:13;0.40;;;0.40;;
16383;SDS011;8301;51.440;6.610;2023-12-22T01:09:42;0.40;;;0.40;;
16383;SDS011;8301;51.440;6.610;2023-12-22T01:12:09;0.30;;;0.30;;
16383;SDS011;8301;51.440;6.610;2023-12-22T01:14:37;0.30;;;0.30;;
16383;SDS011;8301;51.440;6.610;2023-12-22T01:17:04;0.50;;;0.50;;
16383;SDS011;8301;51.440;6.610;2023-12-22T01:19:33;0.25;;;0.25;;
16383;SDS011;8301;51.440;6.610;2023-12-22T01:22:00;0.40;;;0.40;;
16383;SDS011;8301;51.440;6.610;2023-12-22T01:24:28;0.30;;;0.30;;
16383;SDS011;8301;51.440;6.610;2023-12-22T01:26:55;0.30;;;0.30;;
16383;SDS011;8301;51.440;6.610;2023-12-22T01:29:23;0.37;;;0.37;;
16383;SDS011;8301;51.440;6.610;2023-12-22T01:31:50;0.30;;;0.30;;
16383;SDS011;8301;51.440;6.610;2023-12-22T01:34:18;0.30;;;0.30;;
16383;SDS011;8301;51.440;6.610;2023-12-22T01:36:45;0.35;;;0.35;;
16383;SDS011;8301;51.440;6.610;2023-12-22T01:39:13;0.30;;;0.30;;
16383;SDS011;8301;51.440;6.610;2023-12-22T01:41:40;0.30;;;0.30;;
16383;SDS011;8301;51.440;6.610;2023-12-22T01:44:08;0.40;;;0.40;;
16383;SDS011;8301;51.440;6.610;2023-12-22T01:46:35;0.40;;;0.40;;
16383;SDS011;8301;51.440;6.610;2023-12-22T01:49:10;0.30;;;0.30;;
16383;SDS011;8301;51.440;6.610;2023-12-22T01:51:40;1.12;;;1.05;;
16383;SDS011;8301;51.440;6.610;2023-12-22T01:54:08;0.30;;;0.30;;
16383;SDS011;8301;51.440;6.610;2023-12-22T01:56:38;0.30;;;0.30;;
16383;SDS011;8301;51.440;6.610;2023-12-22T01:59:06;1.05;;;1.05;;
16383;SDS011;8301;51.440;6.610;2023-12-22T02:01:34;0.30;;;0.30;;
16383;SDS011;8301;51.440;6.610;2023-12-22T02:04:01;0.30;;;0.30;;
16383;SDS011;8301;51.440;6.610;2023-12-22T02:06:30;0.30;;;0.30;;
16383;SDS011;8301;51.440;6.610;2023-12-22T02:09:01;0.35;;;0.35;;
16383;SDS011;8301;51.440;6.610;2023-12-22T02:11:31;0.40;;;0.40;;
16383;SDS011;8301;51.440;6.610;2023-12-22T02:13:58;0.35;;;0.35;;
16383;SDS011;8301;51.440;6.610;2023-12-22T02:16:30;0.40;;;0.40;;
16383;SDS011;8301;51.440;6.610;2023-12-22T02:22:05;0.30;;;0.30;;
16383;SDS011;8301;51.440;6.610;2023-12-22T02:24:34;0.30;;;0.30;;
16383;SDS011;8301;51.440;6.610;2023-12-22T02:27:05;0.40;;;0.40;;
16383;SDS011;8301;51.440;6.610;2023-12-22T02:32:17;0.40;;;0.40;;
16383;SDS011;8301;51.440;6.610;2023-12-22T02:34:49;0.40;;;0.40;;
16383;SDS011;8301;51.440;6.610;2023-12-22T02:37:19;0.30;;;0.30;;
16383;SDS011;8301;51.440;6.610;2023-12-22T02:39:50;0.30;;;0.30;;
16383;SDS011;8301;51.440;6.610;2023-12-22T02:42:19;0.30;;;0.30;;
16383;SDS011;8301;51.440;6.610;2023-12-22T02:44:50;0.40;;;0.40;;
16383;SDS011;8301;51.440;6.610;2023-12-22T02:47:20;0.72;;;0.72;;
16383;SDS011;8301;51.440;6.610;2023-12-22T02:49:53;0.30;;;0.30;;
16383;SDS011;8301;51.440;6.610;2023-12-22T02:52:21;0.30;;;0.30;;
16383;SDS011;8301;51.440;6.610;2023-12-22T02:54:49;0.30;;;0.30;;
16383;SDS011;8301;51.440;6.610;2023-12-22T02:57:16;4.58;;;3.12;;
16383;SDS011;8301;51.440;6.610;2023-12-22T02:59:44;0.30;;;0.30;;
16383;SDS011;8301;51.440;6.610;2023-12-22T03:02:11;0.30;;;0.30;;
16383;SDS011;8301;51.440;6.610;2023-12-22T03:04:39;0.30;;;0.30;;
16383;SDS011;8301;51.440;6.610;2023-12-22T03:07:06;0.30;;;0.30;;
16383;SDS011;8301;51.440;6.610;2023-12-22T03:09:34;0.30;;;0.30;;
16383;SDS011;8301;51.440;6.610;2023-12-22T03:12:01;0.30;;;0.30;;
16383;SDS011;8301;51.440;6.610;2023-12-22T03:14:29;0.30;;;0.30;;
16383;SDS011;8301;51.440;6.610;2023-12-22T03:16:59;0.30;;;0.30;;
16383;SDS011;8301;51.440;6.610;2023-12-22T03:19:27;0.40;;;0.40;;
16383;SDS011;8301;51.440;6.610;2023-12-22T03:21:55;0.30;;;0.30;;
16383;SDS011;8301;51.440;6.610;2023-12-22T03:24:23;7.78;;;2.37;;
16383;SDS011;8301;51.440;6.610;2023-12-22T03:26:51;0.33;;;0.33;;
16383;SDS011;8301;51.440;6.610;2023-12-22T03:29:19;0.30;;;0.30;;
16383;SDS011;8301;51.440;6.610;2023-12-22T03:31:47;0.50;;;0.50;;
16383;SDS011;8301;51.440;6.610;2023-12-22T03:34:14;0.40;;;0.40;;
16383;SDS011;8301;51.440;6.610;2023-12-22T03:36:42;0.30;;;0.30;;
16383;SDS011;8301;51.440;6.610;2023-12-22T03:39:11;0.33;;;0.33;;
16383;SDS011;8301;51.440;6.610;2023-12-22T03:41:38;0.30;;;0.30;;
16383;SDS011;8301;51.440;6.610;2023-12-22T03:44:07;0.30;;;0.30;;
16383;SDS011;8301;51.440;6.610;2023-12-22T03:46:34;0.40;;;0.40;;
16383;SDS011;8301;51.440;6.610;2023-12-22T03:49:02;0.37;;;0.37;;
16383;SDS011;8301;51.440;6.610;2023-12-22T03:51:29;0.30;;;0.30;;
16383;SDS011;8301;51.440;6.610;2023-12-22T03:53:57;1.50;;;1.45;;
16383;SDS011;8301;51.440;6.610;2023-12-22T03:56:25;1.07;;;1.07;;
16383;SDS011;8301;51.440;6.610;2023-12-22T03:58:52;1.70;;;1.57;;
16383;SDS011;8301;51.440;6.610;2023-12-22T04:01:20;0.30;;;0.30;;
16383;SDS011;8301;51.440;6.610;2023-12-22T04:03:47;0.30;;;0.30;;
16383;SDS011;8301;51.440;6.610;2023-12-22T04:06:14;0.50;;;0.50;;
16383;SDS011;8301;51.440;6.610;2023-12-22T04:08:42;0.30;;;0.30;;
16383;SDS011;8301;51.440;6.610;2023-12-22T04:11:09;0.30;;;0.30;;
16383;SDS011;8301;51.440;6.610;2023-12-22T04:13:37;0.30;;;0.30;;
16383;SDS011;8301;51.440;6.610;2023-12-22T04:16:05;0.68;;;0.68;;
16383;SDS011;8301;51.440;6.610;2023-12-22T04:18:32;0.30;;;0.30;;
16383;SDS011;8301;51.440;6.610;2023-12-22T04:21:00;0.30;;;0.30;;
16383;SDS011;8301;51.440;6.610;2023-12-22T04:23:28;0.30;;;0.30;;
16383;SDS011;8301;51.440;6.610;2023-12-22T04:25:55;0.30;;;0.30;;
16383;SDS011;8301;51.440;6.610;2023-12-22T04:28:24;0.30;;;0.30;;
16383;SDS011;8301;51.440;6.610;2023-12-22T04:30:51;0.20;;;0.20;;
16383;SDS011;8301;51.440;6.610;2023-12-22T04:33:19;0.72;;;0.72;;
16383;SDS011;8301;51.440;6.610;2023-12-22T04:35:46;0.30;;;0.30;;
16383;SDS011;8301;51.440;6.610;2023-12-22T04:38:14;0.50;;;0.50;;
16383;SDS011;8301;51.440;6.610;2023-12-22T04:40:41;0.98;;;0.98;;
16383;SDS011;8301;51.440;6.610;2023-12-22T04:43:09;1.80;;;1.70;;
16383;SDS011;8301;51.440;6.610;2023-12-22T04:45:36;0.82;;;0.82;;
16383;SDS011;8301;51.440;6.610;2023-12-22T04:48:04;4.20;;;2.85;;
16383;SDS011;8301;51.440;6.610;2023-12-22T04:50:32;0.30;;;0.30;;
16383;SDS011;8301;51.440;6.610;2023-12-22T04:52:59;0.42;;;0.42;;
16383;SDS011;8301;51.440;6.610;2023-12-22T04:55:27;0.30;;;0.30;;
16383;SDS011;8301;51.440;6.610;2023-12-22T04:57:54;0.30;;;0.30;;
16383;SDS011;8301;51.440;6.610;2023-12-22T05:00:22;3.10;;;2.80;;
16383;SDS011;8301;51.440;6.610;2023-12-22T05:02:49;3.58;;;2.95;;
16383;SDS011;8301;51.440;6.610;2023-12-22T05:05:17;0.30;;;0.30;;
16383;SDS011;8301;51.440;6.610;2023-12-22T05:07:50;26.82;;;2.30;;
16383;SDS011;8301;51.440;6.610;2023-12-22T05:10:18;0.30;;;0.30;;
16383;SDS011;8301;51.440;6.610;2023-12-22T05:12:47;1.20;;;0.88;;
16383;SDS011;8301;51.440;6.610;2023-12-22T05:15:15;0.30;;;0.30;;
16383;SDS011;8301;51.440;6.610;2023-12-22T05:17:42;0.35;;;0.35;;
16383;SDS011;8301;51.440;6.610;2023-12-22T05:20:10;1.98;;;1.52;;
16383;SDS011;8301;51.440;6.610;2023-12-22T05:22:37;0.30;;;0.30;;
16383;SDS011;8301;51.440;6.610;2023-12-22T05:25:06;2.50;;;1.37;;
16383;SDS011;8301;51.440;6.610;2023-12-22T05:27:35;0.40;;;0.40;;
16383;SDS011;8301;51.440;6.610;2023-12-22T05:30:03;0.30;;;0.30;;
16383;SDS011;8301;51.440;6.610;2023-12-22T05:32:31;0.40;;;0.40;;
16383;SDS011;8301;51.440;6.610;2023-12-22T05:34:59;0.40;;;0.40;;
16383;SDS011;8301;51.440;6.610;2023-12-22T05:37:26;0.30;;;0.30;;
16383;SDS011;8301;51.440;6.610;2023-12-22T05:39:54;0.30;;;0.30;;
16383;SDS011;8301;51.440;6.610;2023-12-22T05:42:21;0.30;;;0.30;;
16383;SDS011;8301;51.440;6.610;2023-12-22T05:44:49;0.30;;;0.30;;
16383;SDS011;8301;51.440;6.610;2023-12-22T05:47:17;0.30;;;0.30;;
16383;SDS011;8301;51.440;6.610;2023-12-22T05:49:45;0.30;;;0.30;;
16383;SDS011;8301;51.440;6.610;2023-12-22T05:52:13;0.30;;;0.30;;
16383;SDS011;8301;51.440;6.610;2023-12-22T05:54:40;0.50;;;0.50;;
16383;SDS011;8301;51.440;6.610;2023-12-22T05:57:08;0.30;;;0.30;;
16383;SDS011;8301;51.440;6.610;2023-12-22T05:59:35;0.37;;;0.37;;
16383;SDS011;8301;51.440;6.610;2023-12-22T06:02:03;0.30;;;0.30;;
16383;SDS011;8301;51.440;6.610;2023-12-22T06:04:30;0.33;;;0.33;;
16383;SDS011;8301;51.440;6.610;2023-12-22T06:06:58;0.30;;;0.30;;
16383;SDS011;8301;51.440;6.610;2023-12-22T06:09:25;0.93;;;0.93;;
16383;SDS011;8301;51.440;6.610;2023-12-22T06:11:53;0.30;;;0.30;;
16383;SDS011;8301;51.440;6.610;2023-12-22T06:14:20;0.30;;;0.30;;
16383;SDS011;8301;51.440;6.610;2023-12-22T06:16:48;0.30;;;0.30;;
16383;SDS011;8301;51.440;6.610;2023-12-22T06:19:16;0.30;;;0.30;;
16383;SDS011;8301;51.440;6.610;2023-12-22T06:21:44;0.30;;;0.30;;
16383;SDS011;8301;51.440;6.610;2023-12-22T06:24:11;0.45;;;0.45;;
16383;SDS011;8301;51.440;6.610;2023-12-22T06:26:39;0.40;;;0.40;;
16383;SDS011;8301;51.440;6.610;2023-12-22T06:29:06;0.30;;;0.30;;
16383;SDS011;8301;51.440;6.610;2023-12-22T06:31:35;0.40;;;0.40;;
16383;SDS011;8301;51.440;6.610;2023-12-22T06:34:02;0.30;;;0.30;;
16383;SDS011;8301;51.440;6.610;2023-12-22T06:36:30;0.30;;;0.30;;
16383;SDS011;8301;51.440;6.610;2023-12-22T06:38:58;0.40;;;0.40;;
16383;SDS011;8301;51.440;6.610;2023-12-22T06:41:26;0.30;;;0.30;;
16383;SDS011;8301;51.440;6.610;2023-12-22T06:43:58;2.70;;;1.85;;
16383;SDS011;8301;51.440;6.610;2023-12-22T06:46:25;0.40;;;0.40;;
16383;SDS011;8301;51.440;6.610;2023-12-22T06:48:55;0.30;;;0.30;;
16383;SDS011;8301;51.440;6.610;2023-12-22T06:51:27;0.30;;;0.30;;
16383;SDS011;8301;51.440;6.610;2023-12-22T06:56:26;2.15;;;2.05;;
16383;SDS011;8301;51.440;6.610;2023-12-22T06:58:55;0.30;;;0.30;;
16383;SDS011;8301;51.440;6.610;2023-12-22T07:01:27;2.00;;;1.07;;
16383;SDS011;8301;51.440;6.610;2023-12-22T07:03:58;1.05;;;1.05;;
16383;SDS011;8301;51.440;6.610;2023-12-22T07:06:30;0.30;;;0.30;;
16383;SDS011;8301;51.440;6.610;2023-12-22T07:11:52;0.37;;;0.37;;
16383;SDS011;8301;51.440;6.610;2023-12-22T07:14:19;0.30;;;0.30;;
16383;SDS011;8301;51.440;6.610;2023-12-22T07:16:47;0.30;;;0.30;;
16383;SDS011;8301;51.440;6.610;2023-12-22T07:19:14;0.30;;;0.30;;
16383;SDS011;8301;51.440;6.610;2023-12-22T07:21:42;0.30;;;0.30;;
16383;SDS011;8301;51.440;6.610;2023-12-22T07:24:09;0.30;;;0.30;;
16383;SDS011;8301;51.440;6.610;2023-12-22T07:26:37;0.30;;;0.30;;
16383;SDS011;8301;51.440;6.610;2023-12-22T07:29:04;0.30;;;0.30;;
16383;SDS011;8301;51.440;6.610;2023-12-22T07:31:32;0.75;;;0.75;;
16383;SDS011;8301;51.440;6.610;2023-12-22T07:33:59;0.75;;;0.75;;
16383;SDS011;8301;51.440;6.610;2023-12-22T07:36:27;0.30;;;0.30;;
16383;SDS011;8301;51.440;6.610;2023-12-22T07:38:54;0.30;;;0.30;;
16383;SDS011;8301;51.440;6.610;2023-12-22T07:41:23;0.65;;;0.65;;
16383;SDS011;8301;51.440;6.610;2023-12-22T07:43:50;1.25;;;1.25;;
16383;SDS011;8301;51.440;6.610;2023-12-22T07:46:18;0.60;;;0.60;;
16383;SDS011;8301;51.440;6.610;2023-12-22T07:48:48;0.65;;;0.60;;
16383;SDS011;8301;51.440;6.610;2023-12-22T07:51:16;0.60;;;0.60;;
16383;SDS011;8301;51.440;6.610;2023-12-22T07:53:43;0.30;;;0.30;;
16383;SDS011;8301;51.440;6.610;2023-12-22T07:56:11;0.30;;;0.30;;
16383;SDS011;8301;51.440;6.610;2023-12-22T07:58:39;1.72;;;1.62;;
16383;SDS011;8301;51.440;6.610;2023-12-22T08:01:06;0.30;;;0.30;;
16383;SDS011;8301;51.440;6.610;2023-12-22T08:03:35;0.85;;;0.85;;
16383;SDS011;8301;51.440;6.610;2023-12-22T08:06:03;0.30;;;0.30;;
16383;SDS011;8301;51.440;6.610;2023-12-22T08:08:30;0.30;;;0.30;;
16383;SDS011;8301;51.440;6.610;2023-12-22T08:10:59;0.30;;;0.30;;
16383;SDS011;8301;51.440;6.610;2023-12-22T08:13:26;0.30;;;0.30;;
16383;SDS011;8301;51.440;6.610;2023-12-22T08:15:54;0.30;;;0.30;;
16383;SDS011;8301;51.440;6.610;2023-12-22T08:18:21;0.30;;;0.30;;
16383;SDS011;8301;51.440;6.610;2023-12-22T08:20:49;0.28;;;0.28;;
16383;SDS011;8301;51.440;6.610;2023-12-22T08:23:16;0.85;;;0.85;;
16383;SDS011;8301;51.440;6.610;2023-12-22T08:25:44;0.30;;;0.30;;
16383;SDS011;8301;51.440;6.610;2023-12-22T08:28:11;0.40;;;0.40;;
16383;SDS011;8301;51.440;6.610;2023-12-22T08:30:39;0.30;;;0.30;;
16383;SDS011;8301;51.440;6.610;2023-12-22T08:33:07;0.25;;;0.25;;
16383;SDS011;8301;51.440;6.610;2023-12-22T08:35:35;0.30;;;0.30;;
16383;SDS011;8301;51.440;6.610;2023-12-22T08:38:03;2.37;;;1.85;;
16383;SDS011;8301;51.440;6.610;2023-12-22T08:40:31;0.30;;;0.30;;
16383;SDS011;8301;51.440;6.610;2023-12-22T08:42:58;2.50;;;2.30;;
16383;SDS011;8301;51.440;6.610;2023-12-22T08:45:26;1.15;;;0.95;;
16383;SDS011;8301;51.440;6.610;2023-12-22T08:47:55;0.72;;;0.72;;
16383;SDS011;8301;51.440;6.610;2023-12-22T08:50:23;0.30;;;0.30;;
16383;SDS011;8301;51.440;6.610;2023-12-22T08:55:17;0.30;;;0.30;;
16383;SDS011;8301;51.440;6.610;2023-12-22T08:57:45;0.30;;;0.30;;
16383;SDS011;8301;51.440;6.610;2023-12-22T09:02:40;1.00;;;1.00;;
16383;SDS011;8301;51.440;6.610;2023-12-22T09:05:08;0.30;;;0.30;;
16383;SDS011;8301;51.440;6.610;2023-12-22T09:07:36;1.32;;;0.68;;
16383;SDS011;8301;51.440;6.610;2023-12-22T09:10:03;0.30;;;0.30;;
16383;SDS011;8301;51.440;6.610;2023-12-22T09:12:31;5.50;;;1.25;;
16383;SDS011;8301;51.440;6.610;2023-12-22T09:14:58;1.23;;;0.50;;
16383;SDS011;8301;51.440;6.610;2023-12-22T09:17:26;0.20;;;0.20;;
16383;SDS011;8301;51.440;6.610;2023-12-22T09:19:54;0.85;;;0.85;;
16383;SDS011;8301;51.440;6.610;2023-12-22T09:22:22;0.85;;;0.85;;
16383;SDS011;8301;51.440;6.610;2023-12-22T09:24:49;0.50;;;0.50;;
16383;SDS011;8301;51.440;6.610;2023-12-22T09:27:17;0.98;;;0.98;;
16383;SDS011;8301;51.440;6.610;2023-12-22T09:29:46;0.30;;;0.30;;
16383;SDS011;8301;51.440;6.610;2023-12-22T09:32:14;0.30;;;0.30;;
16383;SDS011;8301;51.440;6.610;2023-12-22T09:34:44;0.30;;;0.30;;
16383;SDS011;8301;51.440;6.610;2023-12-22T09:37:12;0.40;;;0.40;;
16383;SDS011;8301;51.440;6.610;2023-12-22T09:39:40;0.20;;;0.20;;
16383;SDS011;8301;51.440;6.610;2023-12-22T09:42:07;0.40;;;0.40;;
16383;SDS011;8301;51.440;6.610;2023-12-22T09:44:35;0.30;;;0.30;;
16383;SDS011;8301;51.440;6.610;2023-12-22T09:47:05;0.20;;;0.20;;
16383;SDS011;8301;51.440;6.610;2023-12-22T09:49:34;0.35;;;0.35;;
16383;SDS011;8301;51.440;6.610;2023-12-22T09:52:02;0.30;;;0.30;;
16383;SDS011;8301;51.440;6.610;2023-12-22T09:54:31;0.30;;;0.30;;
16383;SDS011;8301;51.440;6.610;2023-12-22T09:56:59;0.30;;;0.30;;
16383;SDS011;8301;51.440;6.610;2023-12-22T09:59:27;0.68;;;0.68;;
16383;SDS011;8301;51.440;6.610;2023-12-22T10:01:57;1.17;;;1.12;;
16383;SDS011;8301;51.440;6.610;2023-12-22T10:04:26;0.30;;;0.30;;
16383;SDS011;8301;51.440;6.610;2023-12-22T10:06:54;0.30;;;0.30;;
16383;SDS011;8301;51.440;6.610;2023-12-22T10:09:26;0.95;;;0.95;;
16383;SDS011;8301;51.440;6.610;2023-12-22T10:11:54;0.30;;;0.30;;
16383;SDS011;8301;51.440;6.610;2023-12-22T10:14:24;0.50;;;0.50;;
16383;SDS011;8301;51.440;6.610;2023-12-22T10:16:54;0.30;;;0.30;;
16383;SDS011;8301;51.440;6.610;2023-12-22T10:19:22;0.30;;;0.30;;
16383;SDS011;8301;51.440;6.610;2023-12-22T10:21:49;1.92;;;1.82;;
16383;SDS011;8301;51.440;6.610;2023-12-22T10:27:05;0.30;;;0.30;;
16383;SDS011;8301;51.440;6.610;2023-12-22T10:29:32;0.30;;;0.30;;
16383;SDS011;8301;51.440;6.610;2023-12-22T10:32:05;1.20;;;1.15;;
16383;SDS011;8301;51.440;6.610;2023-12-22T10:34:34;0.30;;;0.30;;
16383;SDS011;8301;51.440;6.610;2023-12-22T10:37:02;0.28;;;0.28;;
16383;SDS011;8301;51.440;6.610;2023-12-22T10:39:31;0.35;;;0.35;;
16383;SDS011;8301;51.440;6.610;2023-12-22T10:41:59;0.30;;;0.30;;
16383;SDS011;8301;51.440;6.610;2023-12-22T10:44:27;0.30;;;0.30;;
16383;SDS011;8301;51.440;6.610;2023-12-22T10:46:56;0.30;;;0.30;;
16383;SDS011;8301;51.440;6.610;2023-12-22T10:49:25;0.30;;;0.30;;
16383;SDS011;8301;51.440;6.610;2023-12-22T10:51:52;0.23;;;0.23;;
16383;SDS011;8301;51.440;6.610;2023-12-22T10:54:20;0.30;;;0.30;;
16383;SDS011;8301;51.440;6.610;2023-12-22T10:56:47;0.30;;;0.30;;
16383;SDS011;8301;51.440;6.610;2023-12-22T10:59:19;0.30;;;0.30;;
16383;SDS011;8301;51.440;6.610;2023-12-22T11:01:51;0.30;;;0.30;;
16383;SDS011;8301;51.440;6.610;2023-12-22T11:04:20;0.20;;;0.20;;
16383;SDS011;8301;51.440;6.610;2023-12-22T11:06:49;0.30;;;0.30;;
16383;SDS011;8301;51.440;6.610;2023-12-22T11:09:20;0.30;;;0.30;;
16383;SDS011;8301;51.440;6.610;2023-12-22T11:11:51;0.30;;;0.30;;
16383;SDS011;8301;51.440;6.610;2023-12-22T11:14:19;0.30;;;0.30;;
16383;SDS011;8301;51.440;6.610;2023-12-22T11:16:48;0.30;;;0.30;;
16383;SDS011;8301;51.440;6.610;2023-12-22T11:19:18;0.30;;;0.30;;
16383;SDS011;8301;51.440;6.610;2023-12-22T11:21:45;0.35;;;0.35;;
16383;SDS011;8301;51.440;6.610;2023-12-22T11:24:16;0.30;;;0.30;;
16383;SDS011;8301;51.440;6.610;2023-12-22T11:26:46;1.57;;;0.85;;
16383;SDS011;8301;51.440;6.610;2023-12-22T11:29:16;0.30;;;0.30;;
16383;SDS011;8301;51.440;6.610;2023-12-22T11:31:46;0.30;;;0.30;;
16383;SDS011;8301;51.440;6.610;2023-12-22T11:34:17;0.20;;;0.20;;
16383;SDS011;8301;51.440;6.610;2023-12-22T11:36:46;0.30;;;0.30;;
16383;SDS011;8301;51.440;6.610;2023-12-22T11:39:15;0.28;;;0.28;;
16383;SDS011;8301;51.440;6.610;2023-12-22T11:41:42;0.30;;;0.30;;
16383;SDS011;8301;51.440;6.610;2023-12-22T11:44:11;0.30;;;0.30;;
16383;SDS011;8301;51.440;6.610;2023-12-22T11:46:39;0.30;;;0.30;;
16383;SDS011;8301;51.440;6.610;2023-12-22T11:49:07;0.20;;;0.20;;
16383;SDS011;8301;51.440;6.610;2023-12-22T11:51:34;0.33;;;0.33;;
16383;SDS011;8301;51.440;6.610;2023-12-22T11:54:02;0.30;;;0.30;;
16383;SDS011;8301;51.440;6.610;2023-12-22T11:56:30;0.23;;;0.23;;
16383;SDS011;8301;51.440;6.610;2023-12-22T11:58:58;0.20;;;0.20;;
16383;SDS011;8301;51.440;6.610;2023-12-22T12:01:27;0.20;;;0.20;;
16383;SDS011;8301;51.440;6.610;2023-12-22T12:03:57;0.30;;;0.30;;
16383;SDS011;8301;51.440;6.610;2023-12-22T12:09:03;0.30;;;0.30;;
16383;SDS011;8301;51.440;6.610;2023-12-22T12:14:29;1.90;;;1.70;;
16383;SDS011;8301;51.440;6.610;2023-12-22T12:16:57;0.30;;;0.30;;
16383;SDS011;8301;51.440;6.610;2023-12-22T12:22:05;0.93;;;0.93;;
16383;SDS011;8301;51.440;6.610;2023-12-22T12:24:32;0.30;;;0.30;;
16383;SDS011;8301;51.440;6.610;2023-12-22T12:27:02;0.30;;;0.30;;
16383;SDS011;8301;51.440;6.610;2023-12-22T12:29:31;0.30;;;0.30;;
16383;SDS011;8301;51.440;6.610;2023-12-22T12:32:02;0.30;;;0.30;;
16383;SDS011;8301;51.440;6.610;2023-12-22T12:34:31;0.20;;;0.20;;
16383;SDS011;8301;51.440;6.610;2023-12-22T12:36:59;0.20;;;0.20;;
16383;SDS011;8301;51.440;6.610;2023-12-22T12:39:29;0.30;;;0.30;;
16383;SDS011;8301;51.440;6.610;2023-12-22T12:41:59;0.30;;;0.30;;
16383;SDS011;8301;51.440;6.610;2023-12-22T12:44:29;0.30;;;0.30;;
16383;SDS011;8301;51.440;6.610;2023-12-22T12:46:59;0.25;;;0.25;;
16383;SDS011;8301;51.440;6.610;2023-12-22T12:49:28;0.30;;;0.30;;
16383;SDS011;8301;51.440;6.610;2023-12-22T12:51:56;0.20;;;0.20;;
16383;SDS011;8301;51.440;6.610;2023-12-22T12:54:24;0.70;;;0.70;;
16383;SDS011;8301;51.440;6.610;2023-12-22T12:56:52;0.30;;;0.30;;
16383;SDS011;8301;51.440;6.610;2023-12-22T12:59:19;0.30;;;0.30;;
16383;SDS011;8301;51.440;6.610;2023-12-22T13:01:48;1.75;;;1.65;;
16383;SDS011;8301;51.440;6.610;2023-12-22T13:04:15;0.30;;;0.30;;
16383;SDS011;8301;51.440;6.610;2023-12-22T13:06:48;0.40;;;0.40;;
16383;SDS011;8301;51.440;6.610;2023-12-22T13:09:13;0.30;;;0.30;;
16383;SDS011;8301;51.440;6.610;2023-12-22T13:11:42;0.30;;;0.30;;
16383;SDS011;8301;51.440;6.610;2023-12-22T13:14:25;0.30;;;0.30;;
16383;SDS011;8301;51.440;6.610;2023-12-22T13:16:53;0.30;;;0.30;;
16383;SDS011;8301;51.440;6.610;2023-12-22T13:19:22;0.30;;;0.30;;
16383;SDS011;8301;51.440;6.610;2023-12-22T13:21:52;0.20;;;0.20;;
16383;SDS011;8301;51.440;6.610;2023-12-22T13:24:20;0.40;;;0.40;;
16383;SDS011;8301;51.440;6.610;2023-12-22T13:26:58;0.30;;;0.30;;
16383;SDS011;8301;51.440;6.610;2023-12-22T13:32:00;0.30;;;0.30;;
16383;SDS011;8301;51.440;6.610;2023-12-22T13:34:28;0.30;;;0.30;;
16383;SDS011;8301;51.440;6.610;2023-12-22T13:36:56;0.30;;;0.30;;
16383;SDS011;8301;51.440;6.610;2023-12-22T13:39:26;0.30;;;0.30;;
16383;SDS011;8301;51.440;6.610;2023-12-22T13:41:55;0.20;;;0.20;;
16383;SDS011;8301;51.440;6.610;2023-12-22T13:44:22;0.30;;;0.30;;
16383;SDS011;8301;51.440;6.610;2023-12-22T13:46:50;0.20;;;0.20;;
16383;SDS011;8301;51.440;6.610;2023-12-22T13:51:44;0.30;;;0.30;;
16383;SDS011;8301;51.440;6.610;2023-12-22T13:54:15;0.30;;;0.30;;
16383;SDS011;8301;51.440;6.610;2023-12-22T13:56:42;0.20;;;0.20;;
16383;SDS011;8301;51.440;6.610;2023-12-22T13:59:12;0.37;;;0.37;;
16383;SDS011;8301;51.440;6.610;2023-12-22T14:01:39;0.20;;;0.20;;
16383;SDS011;8301;51.440;6.610;2023-12-22T14:04:07;45.50;;;1.87;;
16383;SDS011;8301;51.440;6.610;2023-12-22T14:06:36;1.45;;;1.27;;
16383;SDS011;8301;51.440;6.610;2023-12-22T14:09:05;0.20;;;0.20;;
16383;SDS011;8301;51.440;6.610;2023-12-22T14:11:32;0.65;;;0.65;;
16383;SDS011;8301;51.440;6.610;2023-12-22T14:14:00;0.20;;;0.20;;
16383;SDS011;8301;51.440;6.610;2023-12-22T14:16:27;0.30;;;0.30;;
16383;SDS011;8301;51.440;6.610;2023-12-22T14:18:55;0.30;;;0.30;;
16383;SDS011;8301;51.440;6.610;2023-12-22T14:21:22;0.30;;;0.30;;
16383;SDS011;8301;51.440;6.610;2023-12-22T14:23:50;0.20;;;0.20;;
16383;SDS011;8301;51.440;6.610;2023-12-22T14:26:17;0.30;;;0.30;;
16383;SDS011;8301;51.440;6.610;2023-12-22T14:28:45;0.25;;;0.25;;
16383;SDS011;8301;51.440;6.610;2023-12-22T14:31:14;0.60;;;0.60;;
16383;SDS011;8301;51.440;6.610;2023-12-22T14:33:42;0.30;;;0.30;;
16383;SDS011;8301;51.440;6.610;2023-12-22T14:36:09;0.30;;;0.30;;
16383;SDS011;8301;51.440;6.610;2023-12-22T14:38:37;0.30;;;0.30;;
16383;SDS011;8301;51.440;6.610;2023-12-22T14:41:04;0.40;;;0.40;;
16383;SDS011;8301;51.440;6.610;2023-12-22T14:43:33;0.50;;;0.50;;
16383;SDS011;8301;51.440;6.610;2023-12-22T14:46:00;2.10;;;1.07;;
16383;SDS011;8301;51.440;6.610;2023-12-22T14:55:48;11.75;;;7.28;;
16383;SDS011;8301;51.440;6.610;2023-12-22T14:58:17;461.98;;;261.10;;
16383;SDS011;8301;51.440;6.610;2023-12-22T15:00:45;29.23;;;7.08;;
16383;SDS011;8301;51.440;6.610;2023-12-22T15:03:12;1999.90;;;823.58;;
16383;SDS011;8301;51.440;6.610;2023-12-22T15:05:40;0.30;;;0.30;;
16383;SDS011;8301;51.440;6.610;2023-12-22T15:08:07;553.48;;;272.10;;
16383;SDS011;8301;51.440;6.610;2023-12-22T15:10:35;18.70;;;11.43;;
16383;SDS011;8301;51.440;6.610;2023-12-22T15:13:03;1.80;;;1.47;;
16383;SDS011;8301;51.440;6.610;2023-12-22T15:15:30;0.20;;;0.20;;
16383;SDS011;8301;51.440;6.610;2023-12-22T15:17:58;1999.90;;;968.10;;
16383;SDS011;8301;51.440;6.610;2023-12-22T15:20:25;1999.90;;;999.90;;
16383;SDS011;8301;51.440;6.610;2023-12-22T15:22:53;1999.90;;;999.90;;
16383;SDS011;8301;51.440;6.610;2023-12-22T15:25:20;1509.75;;;692.37;;
16383;SDS011;8301;51.440;6.610;2023-12-22T15:27:48;1999.90;;;999.90;;
16383;SDS011;8301;51.440;6.610;2023-12-22T15:30:15;0.50;;;0.50;;
16383;SDS011;8301;51.440;6.610;2023-12-22T15:32:43;1361.80;;;469.13;;
16383;SDS011;8301;51.440;6.610;2023-12-22T15:35:10;351.10;;;180.07;;
16383;SDS011;8301;51.440;6.610;2023-12-22T15:37:38;0.20;;;0.20;;
16383;SDS011;8301;51.440;6.610;2023-12-22T15:40:07;1847.10;;;815.27;;
16383;SDS011;8301;51.440;6.610;2023-12-22T15:42:36;1999.90;;;999.90;;